NJE300 ZULS-ZUUU
Flight info
| Callsign | NJE300 |
|---|---|
| Flight time | N/A |
| Altitude | 37000 |
| Route | DM01D DM W9 LADUP LADUP8L |
| Aircraft | A20N/M-SDE2E3FGHIRWXY/LB1 |
Departure
| Time | 2026-04-21 05:30 |
|---|---|
| Airport | Lhasa Gonggar International Airport (ZULS) |
Arrival
| Time | N/A |
|---|---|
| Airport | Chengdu Shuangliu International Airport (ZUUU) |
| Time | Latitude | Longitude | Altitude | Speed | Heading |
|---|---|---|---|---|---|
| 2026-04-21 05:22 | 29.29215 | 90.89319 | 11515 ft | 0 kts | 110° |
| 2026-04-21 05:23 | 29.29222 | 90.89295 | 11497 ft | 4 kts | 110° |
| 2026-04-21 05:23 | 29.29231 | 90.89266 | 11508 ft | 4 kts | 110° |
| 2026-04-21 05:23 | 29.29241 | 90.89236 | 11508 ft | 4 kts | 109° |
| 2026-04-21 05:23 | 29.29248 | 90.89213 | 11493 ft | 3 kts | 93° |
| 2026-04-21 05:24 | 29.29252 | 90.89197 | 11496 ft | 3 kts | 103° |
| 2026-04-21 05:24 | 29.29256 | 90.89173 | 11512 ft | 2 kts | 92° |
| 2026-04-21 05:24 | 29.29256 | 90.89160 | 11498 ft | 2 kts | 57° |
| 2026-04-21 05:24 | 29.29248 | 90.89151 | 11500 ft | 2 kts | 17° |
| 2026-04-21 05:25 | 29.29245 | 90.89150 | 11497 ft | 0 kts | 16° |
| 2026-04-21 05:26 | 29.29246 | 90.89150 | 11497 ft | 0 kts | 16° |
| 2026-04-21 05:26 | 29.29248 | 90.89151 | 11500 ft | 1 kts | 16° |
| 2026-04-21 05:27 | 29.29260 | 90.89156 | 11498 ft | 2 kts | 18° |
| 2026-04-21 05:27 | 29.29276 | 90.89162 | 11504 ft | 3 kts | 19° |
| 2026-04-21 05:27 | 29.29296 | 90.89169 | 11506 ft | 3 kts | 19° |
| 2026-04-21 05:27 | 29.29317 | 90.89178 | 11504 ft | 3 kts | 18° |
| 2026-04-21 05:28 | 29.29327 | 90.89182 | 11501 ft | 3 kts | 18° |
| 2026-04-21 05:28 | 29.29418 | 90.89197 | 11506 ft | 19 kts | 360° |
| 2026-04-21 05:28 | 29.29556 | 90.89196 | 11501 ft | 21 kts | 360° |
| 2026-04-21 05:28 | 29.29702 | 90.89196 | 11505 ft | 20 kts | 360° |
| 2026-04-21 05:29 | 29.29778 | 90.89261 | 11499 ft | 13 kts | 86° |
| 2026-04-21 05:29 | 29.29779 | 90.89375 | 11496 ft | 22 kts | 89° |
| 2026-04-21 05:29 | 29.29786 | 90.89848 | 11510 ft | 96 kts | 89° |
| 2026-04-21 05:29 | 29.29798 | 90.90863 | 11505 ft | 155 kts | 88° |
| 2026-04-21 05:30 | 29.29821 | 90.92254 | 11562 ft | 191 kts | 89° |
| 2026-04-21 05:30 | 29.29846 | 90.93749 | 12345 ft | 183 kts | 89° |
| 2026-04-21 05:30 | 29.29842 | 90.95209 | 12817 ft | 190 kts | 92° |
| 2026-04-21 05:30 | 29.29769 | 90.96789 | 12983 ft | 206 kts | 92° |
| 2026-04-21 05:31 | 29.29715 | 90.98490 | 13221 ft | 217 kts | 91° |
| 2026-04-21 05:31 | 29.29691 | 91.00236 | 13442 ft | 226 kts | 91° |
| 2026-04-21 05:31 | 29.29683 | 91.02101 | 13535 ft | 242 kts | 90° |
| 2026-04-21 05:31 | 29.29683 | 91.04097 | 13625 ft | 257 kts | 90° |
| 2026-04-21 05:32 | 29.29687 | 91.06204 | 13713 ft | 273 kts | 90° |
| 2026-04-21 05:32 | 29.29690 | 91.08440 | 13777 ft | 290 kts | 90° |
| 2026-04-21 05:32 | 29.29697 | 91.10784 | 13912 ft | 299 kts | 90° |
| 2026-04-21 05:32 | 29.29704 | 91.13170 | 14302 ft | 303 kts | 90° |
| 2026-04-21 05:33 | 29.29718 | 91.15610 | 14753 ft | 306 kts | 90° |
| 2026-04-21 05:33 | 29.29733 | 91.18068 | 14889 ft | 319 kts | 90° |
| 2026-04-21 05:33 | 29.29746 | 91.20671 | 15016 ft | 338 kts | 90° |
| 2026-04-21 05:33 | 29.29751 | 91.23472 | 15278 ft | 363 kts | 90° |
| 2026-04-21 05:34 | 29.29759 | 91.26457 | 15636 ft | 383 kts | 90° |
| 2026-04-21 05:34 | 29.29768 | 91.29543 | 16346 ft | 390 kts | 90° |
| 2026-04-21 05:34 | 29.29777 | 91.32673 | 17205 ft | 394 kts | 90° |
| 2026-04-21 05:34 | 29.29785 | 91.35820 | 18105 ft | 396 kts | 90° |
| 2026-04-21 05:35 | 29.29791 | 91.39002 | 18670 ft | 402 kts | 90° |
| 2026-04-21 05:35 | 29.29796 | 91.42223 | 19235 ft | 406 kts | 90° |
| 2026-04-21 05:35 | 29.29800 | 91.45470 | 19844 ft | 409 kts | 90° |
| 2026-04-21 05:35 | 29.29804 | 91.48708 | 20389 ft | 413 kts | 90° |
| 2026-04-21 05:36 | 29.29807 | 91.52018 | 20980 ft | 417 kts | 90° |
| 2026-04-21 05:36 | 29.29810 | 91.55365 | 21491 ft | 423 kts | 90° |
| 2026-04-21 05:36 | 29.29811 | 91.58746 | 22080 ft | 426 kts | 90° |
| 2026-04-21 05:36 | 29.29811 | 91.62161 | 22650 ft | 430 kts | 90° |
| 2026-04-21 05:37 | 29.29810 | 91.65605 | 23234 ft | 434 kts | 90° |
| 2026-04-21 05:37 | 29.29494 | 91.69049 | 23737 ft | 436 kts | 104° |
| 2026-04-21 05:37 | 29.28468 | 91.72321 | 24161 ft | 439 kts | 119° |
| 2026-04-21 05:37 | 29.26778 | 91.75228 | 24632 ft | 439 kts | 133° |
| 2026-04-21 05:38 | 29.24870 | 91.77987 | 25080 ft | 446 kts | 124° |
| 2026-04-21 05:38 | 29.23502 | 91.81202 | 25515 ft | 453 kts | 111° |
| 2026-04-21 05:38 | 29.22782 | 91.84757 | 25844 ft | 464 kts | 98° |
| 2026-04-21 05:38 | 29.22761 | 91.88441 | 26195 ft | 472 kts | 84° |
| 2026-04-21 05:39 | 29.23399 | 91.92135 | 26614 ft | 476 kts | 76° |
| 2026-04-21 05:39 | 29.24127 | 91.95850 | 27133 ft | 478 kts | 80° |
| 2026-04-21 05:39 | 29.24582 | 91.99643 | 27621 ft | 480 kts | 85° |
| 2026-04-21 05:39 | 29.24759 | 92.03479 | 27912 ft | 485 kts | 90° |
| 2026-04-21 05:40 | 29.24757 | 92.07311 | 28325 ft | 488 kts | 92° |
| 2026-04-21 05:40 | 29.24671 | 92.11212 | 28681 ft | 491 kts | 93° |
| 2026-04-21 05:40 | 29.24557 | 92.15137 | 29076 ft | 495 kts | 94° |
| 2026-04-21 05:40 | 29.24438 | 92.19091 | 29410 ft | 499 kts | 94° |
| 2026-04-21 05:41 | 29.24320 | 92.23077 | 29687 ft | 503 kts | 93° |
| 2026-04-21 05:41 | 29.24209 | 92.27099 | 30012 ft | 507 kts | 93° |
| 2026-04-21 05:41 | 29.24101 | 92.31158 | 30332 ft | 510 kts | 94° |
| 2026-04-21 05:41 | 29.23992 | 92.35242 | 30578 ft | 514 kts | 94° |
| 2026-04-21 05:42 | 29.23881 | 92.39351 | 30879 ft | 517 kts | 94° |
| 2026-04-21 05:42 | 29.23767 | 92.43476 | 31202 ft | 520 kts | 94° |
| 2026-04-21 05:42 | 29.23649 | 92.47622 | 31692 ft | 521 kts | 93° |
| 2026-04-21 05:42 | 29.23532 | 92.51782 | 32052 ft | 523 kts | 94° |
| 2026-04-21 05:43 | 29.23659 | 92.55914 | 32363 ft | 527 kts | 83° |
| 2026-04-21 05:43 | 29.24447 | 92.60009 | 32745 ft | 528 kts | 71° |
| 2026-04-21 05:43 | 29.25878 | 92.63878 | 33069 ft | 528 kts | 59° |
| 2026-04-21 05:43 | 29.27691 | 92.67537 | 33394 ft | 528 kts | 57° |
| 2026-04-21 05:44 | 29.29542 | 92.71196 | 33587 ft | 532 kts | 57° |
| 2026-04-21 05:44 | 29.31386 | 92.74860 | 33926 ft | 531 kts | 57° |
| 2026-04-21 05:44 | 29.33226 | 92.78539 | 34177 ft | 533 kts | 57° |
| 2026-04-21 05:44 | 29.35066 | 92.82235 | 34443 ft | 534 kts | 57° |
| 2026-04-21 05:45 | 29.36905 | 92.85946 | 34715 ft | 535 kts | 58° |
| 2026-04-21 05:45 | 29.38740 | 92.89666 | 35007 ft | 535 kts | 58° |
| 2026-04-21 05:45 | 29.40567 | 92.93374 | 35294 ft | 534 kts | 57° |
| 2026-04-21 05:45 | 29.42403 | 92.97095 | 35500 ft | 535 kts | 57° |
| 2026-04-21 05:46 | 29.44217 | 93.00768 | 35854 ft | 536 kts | 58° |
| 2026-04-21 05:46 | 29.46051 | 93.04513 | 36050 ft | 540 kts | 57° |
| 2026-04-21 05:46 | 29.47894 | 93.08283 | 36232 ft | 543 kts | 57° |
| 2026-04-21 05:46 | 29.49753 | 93.12069 | 36421 ft | 544 kts | 57° |
| 2026-04-21 05:47 | 29.51608 | 93.15853 | 36744 ft | 541 kts | 58° |
| 2026-04-21 05:47 | 29.53460 | 93.19632 | 36945 ft | 544 kts | 58° |
| 2026-04-21 05:47 | 29.57191 | 93.27250 | 36943 ft | 550 kts | 58° |
| 2026-04-21 05:48 | 29.60958 | 93.34965 | 36966 ft | 556 kts | 58° |
| 2026-04-21 05:48 | 29.64732 | 93.42727 | 36933 ft | 563 kts | 58° |
| 2026-04-21 05:49 | 29.68569 | 93.50612 | 36945 ft | 567 kts | 58° |
| 2026-04-21 05:49 | 29.72373 | 93.58468 | 36942 ft | 556 kts | 58° |
| 2026-04-21 05:50 | 29.76090 | 93.66158 | 36942 ft | 549 kts | 58° |
| 2026-04-21 05:50 | 29.79821 | 93.73872 | 36940 ft | 550 kts | 58° |
| 2026-04-21 05:51 | 29.83514 | 93.81522 | 36932 ft | 548 kts | 58° |
| 2026-04-21 05:51 | 29.87208 | 93.89193 | 36945 ft | 551 kts | 59° |
| 2026-04-21 05:52 | 29.90162 | 93.97423 | 36961 ft | 556 kts | 73° |
| 2026-04-21 05:52 | 29.91920 | 94.06016 | 36960 ft | 555 kts | 77° |
| 2026-04-21 05:53 | 29.93632 | 94.14661 | 36958 ft | 548 kts | 77° |
| 2026-04-21 05:53 | 29.95325 | 94.23252 | 36961 ft | 550 kts | 77° |
| 2026-04-21 05:54 | 29.97025 | 94.31900 | 36983 ft | 557 kts | 77° |
| 2026-04-21 05:54 | 29.98722 | 94.40563 | 36998 ft | 555 kts | 78° |
| 2026-04-21 05:55 | 30.00418 | 94.49249 | 36997 ft | 556 kts | 78° |
| 2026-04-21 05:55 | 30.02111 | 94.57985 | 36956 ft | 556 kts | 78° |
| 2026-04-21 05:56 | 30.03826 | 94.66647 | 37001 ft | 555 kts | 78° |
| 2026-04-21 05:56 | 30.05483 | 94.75368 | 36992 ft | 557 kts | 78° |
| 2026-04-21 05:57 | 30.07147 | 94.84106 | 36991 ft | 557 kts | 78° |
| 2026-04-21 05:57 | 30.08807 | 94.92800 | 37003 ft | 555 kts | 78° |
| 2026-04-21 05:58 | 30.10489 | 95.01543 | 36987 ft | 558 kts | 78° |
| 2026-04-21 05:58 | 30.12249 | 95.10291 | 37008 ft | 558 kts | 77° |
| 2026-04-21 05:59 | 30.13967 | 95.18964 | 37005 ft | 557 kts | 77° |
| 2026-04-21 06:00 | 30.16571 | 95.32079 | 37019 ft | 559 kts | 77° |
| 2026-04-21 06:00 | 30.18275 | 95.40807 | 37043 ft | 555 kts | 78° |
| 2026-04-21 06:01 | 30.19981 | 95.49556 | 37036 ft | 557 kts | 78° |
| 2026-04-21 06:01 | 30.21683 | 95.58293 | 37036 ft | 556 kts | 78° |
| 2026-04-21 06:02 | 30.23377 | 95.67049 | 37033 ft | 561 kts | 78° |
| 2026-04-21 06:02 | 30.25079 | 95.75818 | 37056 ft | 559 kts | 78° |
| 2026-04-21 06:03 | 30.26782 | 95.84611 | 37021 ft | 560 kts | 77° |
| 2026-04-21 06:03 | 30.28457 | 95.93311 | 37010 ft | 553 kts | 78° |
| 2026-04-21 06:04 | 30.30125 | 96.02022 | 36998 ft | 556 kts | 78° |
| 2026-04-21 06:04 | 30.31578 | 96.09330 | 36959 ft | 555 kts | 77° |
| 2026-04-21 06:05 | 30.33323 | 96.17978 | 36963 ft | 551 kts | 76° |
| 2026-04-21 06:05 | 30.35068 | 96.26671 | 36922 ft | 552 kts | 76° |
| 2026-04-21 06:06 | 30.36808 | 96.35342 | 36923 ft | 555 kts | 78° |
| 2026-04-21 06:06 | 30.38501 | 96.43979 | 36888 ft | 555 kts | 77° |
| 2026-04-21 06:07 | 30.40230 | 96.52746 | 36892 ft | 558 kts | 77° |
| 2026-04-21 06:07 | 30.41954 | 96.61514 | 36869 ft | 553 kts | 78° |
| 2026-04-21 06:08 | 30.43658 | 96.70200 | 36870 ft | 553 kts | 78° |
| 2026-04-21 06:08 | 30.45355 | 96.78888 | 36866 ft | 558 kts | 77° |
| 2026-04-21 06:09 | 30.47063 | 96.87652 | 36871 ft | 558 kts | 78° |
| 2026-04-21 06:09 | 30.48755 | 96.96459 | 36855 ft | 558 kts | 78° |
| 2026-04-21 06:10 | 30.50432 | 97.05250 | 36854 ft | 554 kts | 78° |
| 2026-04-21 06:10 | 30.51695 | 97.14048 | 36835 ft | 553 kts | 88° |
| 2026-04-21 06:11 | 30.51450 | 97.22928 | 36801 ft | 549 kts | 99° |
| 2026-04-21 06:11 | 30.50724 | 97.31684 | 36775 ft | 549 kts | 98° |
| 2026-04-21 06:12 | 30.49998 | 97.40490 | 36427 ft | 545 kts | 99° |
| 2026-04-21 06:12 | 30.49640 | 97.44842 | 36089 ft | 539 kts | 99° |
| 2026-04-21 06:12 | 30.49282 | 97.49150 | 35474 ft | 535 kts | 99° |
| 2026-04-21 06:12 | 30.48926 | 97.53406 | 35018 ft | 525 kts | 98° |
| 2026-04-21 06:13 | 30.48573 | 97.57600 | 34831 ft | 525 kts | 99° |
| 2026-04-21 06:13 | 30.47843 | 97.66154 | 34750 ft | 537 kts | 98° |
| 2026-04-21 06:14 | 30.47103 | 97.74758 | 34749 ft | 536 kts | 99° |
| 2026-04-21 06:14 | 30.46358 | 97.83335 | 34733 ft | 536 kts | 99° |
| 2026-04-21 06:15 | 30.45610 | 97.91928 | 34737 ft | 534 kts | 99° |
| 2026-04-21 06:15 | 30.44857 | 98.00537 | 34737 ft | 540 kts | 99° |
| 2026-04-21 06:16 | 30.44090 | 98.09217 | 34743 ft | 540 kts | 99° |
| 2026-04-21 06:16 | 30.43319 | 98.17864 | 34750 ft | 541 kts | 99° |
| 2026-04-21 06:17 | 30.42605 | 98.26478 | 34748 ft | 541 kts | 98° |
| 2026-04-21 06:17 | 30.41953 | 98.35157 | 34742 ft | 541 kts | 98° |
| 2026-04-21 06:18 | 30.41277 | 98.43915 | 34758 ft | 546 kts | 98° |
| 2026-04-21 06:18 | 30.40588 | 98.52684 | 34757 ft | 546 kts | 98° |
| 2026-04-21 06:19 | 30.39888 | 98.61457 | 34761 ft | 546 kts | 98° |
| 2026-04-21 06:19 | 30.39184 | 98.70219 | 34747 ft | 546 kts | 98° |
| 2026-04-21 06:20 | 30.38468 | 98.79090 | 34753 ft | 560 kts | 99° |
| 2026-04-21 06:20 | 30.37736 | 98.88009 | 34743 ft | 558 kts | 99° |
| 2026-04-21 06:21 | 30.36983 | 98.96975 | 34731 ft | 557 kts | 99° |
| 2026-04-21 06:21 | 30.36247 | 99.05919 | 34736 ft | 560 kts | 99° |
| 2026-04-21 06:22 | 30.35498 | 99.14914 | 34734 ft | 562 kts | 99° |
| 2026-04-21 06:22 | 30.34744 | 99.23934 | 34758 ft | 560 kts | 99° |
| 2026-04-21 06:23 | 30.33988 | 99.32812 | 34757 ft | 561 kts | 99° |
| 2026-04-21 06:23 | 30.33205 | 99.41880 | 34777 ft | 561 kts | 99° |
| 2026-04-21 06:24 | 30.32428 | 99.50837 | 34781 ft | 563 kts | 99° |
| 2026-04-21 06:24 | 30.31642 | 99.59860 | 34778 ft | 562 kts | 99° |
| 2026-04-21 06:25 | 30.30850 | 99.68865 | 34780 ft | 564 kts | 99° |
| 2026-04-21 06:25 | 30.30049 | 99.77897 | 34773 ft | 563 kts | 99° |
| 2026-04-21 06:26 | 30.29248 | 99.86851 | 34751 ft | 564 kts | 99° |
| 2026-04-21 06:26 | 30.28435 | 99.95868 | 34751 ft | 564 kts | 99° |
| 2026-04-21 06:27 | 30.27653 | 100.04912 | 34720 ft | 564 kts | 98° |
| 2026-04-21 06:27 | 30.27009 | 100.13974 | 34702 ft | 565 kts | 98° |
| 2026-04-21 06:28 | 30.26348 | 100.23032 | 34700 ft | 563 kts | 98° |
| 2026-04-21 06:28 | 30.25661 | 100.32090 | 34680 ft | 565 kts | 98° |
| 2026-04-21 06:29 | 30.24970 | 100.41091 | 34680 ft | 566 kts | 98° |
| 2026-04-21 06:29 | 30.24274 | 100.50136 | 34660 ft | 564 kts | 98° |
| 2026-04-21 06:30 | 30.23570 | 100.59168 | 34641 ft | 564 kts | 98° |